createdAt,value
2023-02-19T00:00:59.426Z,76.44
2023-02-19T00:03:27.287Z,77.74
2023-02-19T00:05:54.605Z,77.86
2023-02-19T00:08:22.042Z,77.00
2023-02-19T00:10:49.364Z,77.08
2023-02-19T00:13:16.883Z,76.74
2023-02-19T00:15:44.158Z,77.42
2023-02-19T00:18:11.549Z,77.41
2023-02-19T00:20:38.839Z,77.34
2023-02-19T00:23:06.145Z,77.03
2023-02-19T00:25:36.973Z,77.29
2023-02-19T00:28:04.735Z,76.43
2023-02-19T00:30:32.068Z,76.40
2023-02-19T00:32:59.482Z,76.65
2023-02-19T00:35:26.758Z,76.11
2023-02-19T00:37:54.080Z,76.07
2023-02-19T00:40:21.408Z,74.78
2023-02-19T00:42:48.709Z,74.65
2023-02-19T00:45:16.872Z,74.44
2023-02-19T00:47:44.217Z,75.13
2023-02-19T00:50:11.626Z,75.44
2023-02-19T00:52:38.992Z,75.07
2023-02-19T00:55:06.503Z,74.43
2023-02-19T00:57:33.859Z,74.66
2023-02-19T01:00:01.232Z,74.39
2023-02-19T01:02:28.569Z,74.48
2023-02-19T01:04:56.097Z,74.25
2023-02-19T01:07:23.494Z,74.36
2023-02-19T01:09:51.947Z,74.36
2023-02-19T01:12:19.322Z,74.41
2023-02-19T01:14:46.997Z,74.72
2023-02-19T01:17:14.343Z,74.12
2023-02-19T01:19:41.688Z,73.65
2023-02-19T01:22:09.180Z,73.29
2023-02-19T01:24:36.415Z,73.77
2023-02-19T01:27:03.909Z,73.61
2023-02-19T01:29:31.220Z,73.55
2023-02-19T01:31:58.634Z,73.95
2023-02-19T01:34:27.149Z,73.42
2023-02-19T01:36:54.547Z,73.79
2023-02-19T01:39:22.750Z,72.72
2023-02-19T01:41:50.208Z,73.14
2023-02-19T01:44:18.518Z,73.88
2023-02-19T01:46:51.606Z,73.94
2023-02-19T01:49:38.906Z,73.92
2023-02-19T01:52:22.121Z,73.29
2023-02-19T01:54:49.623Z,72.60
2023-02-19T01:57:19.252Z,72.15
2023-02-19T01:59:47.833Z,71.77
2023-02-19T02:02:15.357Z,72.05
2023-02-19T02:04:42.859Z,72.28
2023-02-19T02:07:28.730Z,71.82
2023-02-19T02:10:22.220Z,72.00
2023-02-19T02:12:50.243Z,71.59
2023-02-19T02:15:17.674Z,71.73
2023-02-19T02:17:57.580Z,71.33
2023-02-19T02:20:40.199Z,71.85
2023-02-19T02:23:24.689Z,72.47
2023-02-19T02:26:20.369Z,73.10
2023-02-19T02:28:47.779Z,73.39
2023-02-19T02:31:17.815Z,73.41
2023-02-19T02:33:51.916Z,73.23
2023-02-19T02:36:22.343Z,72.85
2023-02-19T02:38:50.037Z,73.08
2023-02-19T02:41:21.270Z,73.46
2023-02-19T02:43:48.712Z,72.97
2023-02-19T02:46:34.283Z,74.26
2023-02-19T02:49:20.822Z,74.83
2023-02-19T02:51:51.325Z,74.62
2023-02-19T02:54:51.221Z,74.27
2023-02-19T02:57:20.897Z,74.53
2023-02-19T02:59:55.038Z,74.37
2023-02-19T03:02:25.787Z,74.68
2023-02-19T03:05:38.333Z,74.16
2023-02-19T03:08:10.154Z,74.74
2023-02-19T03:10:45.988Z,75.14
2023-02-19T03:13:54.054Z,75.70
2023-02-19T03:16:43.709Z,76.51
2023-02-19T03:19:19.145Z,76.13
2023-02-19T03:21:50.292Z,76.17
2023-02-19T03:24:36.044Z,76.54
2023-02-19T03:27:03.474Z,76.78
2023-02-19T03:29:36.729Z,76.30
2023-02-19T03:32:19.168Z,76.19
2023-02-19T03:35:14.103Z,76.61
2023-02-19T03:37:47.207Z,76.46
2023-02-19T03:40:15.531Z,76.45
2023-02-19T03:43:01.573Z,76.62
2023-02-19T03:45:55.934Z,75.74
2023-02-19T03:48:35.581Z,75.89
2023-02-19T03:51:32.569Z,76.78
2023-02-19T03:54:31.610Z,76.94
2023-02-19T03:57:02.166Z,77.13
2023-02-19T03:59:35.748Z,77.18
2023-02-19T04:02:14.200Z,77.07
2023-02-19T04:04:45.151Z,76.60
2023-02-19T04:07:12.778Z,76.13
2023-02-19T04:09:43.684Z,76.18
2023-02-19T04:12:14.804Z,76.23
2023-02-19T04:14:52.558Z,76.09
2023-02-19T04:17:31.564Z,75.97
2023-02-19T04:19:58.936Z,75.82
2023-02-19T04:22:26.212Z,76.05
2023-02-19T04:24:53.652Z,75.46
2023-02-19T04:27:21.003Z,76.19
2023-02-19T04:29:48.364Z,76.35
2023-02-19T04:32:15.606Z,76.50
2023-02-19T04:34:42.925Z,76.52
2023-02-19T04:37:10.262Z,76.65
2023-02-19T04:39:37.694Z,76.16
2023-02-19T04:42:05.013Z,76.33
2023-02-19T04:44:33.541Z,76.07
2023-02-19T04:47:01.005Z,76.01
2023-02-19T04:49:28.285Z,76.09
2023-02-19T04:51:55.522Z,75.72
2023-02-19T04:54:22.891Z,75.81
2023-02-19T04:56:50.956Z,76.28
2023-02-19T04:59:18.344Z,76.62
2023-02-19T05:01:45.590Z,76.93
2023-02-19T05:04:13.032Z,76.45
2023-02-19T05:06:40.251Z,76.38
2023-02-19T05:09:07.593Z,76.45
2023-02-19T05:11:34.881Z,76.13
2023-02-19T05:14:02.220Z,76.11
2023-02-19T05:16:29.523Z,76.03
2023-02-19T05:18:56.845Z,75.60
2023-02-19T05:21:24.166Z,75.74
2023-02-19T05:23:51.609Z,76.29
2023-02-19T05:26:20.598Z,75.79
2023-02-19T05:28:49.390Z,75.41
2023-02-19T05:31:16.840Z,75.91
2023-02-19T05:33:45.883Z,75.86
2023-02-19T05:36:13.522Z,75.78
2023-02-19T05:38:41.255Z,76.12
2023-02-19T05:41:18.552Z,75.81
2023-02-19T05:43:46.593Z,76.04
2023-02-19T05:46:15.834Z,76.13
2023-02-19T05:48:43.302Z,76.17
2023-02-19T05:51:12.970Z,76.91
2023-02-19T05:53:40.757Z,77.19
2023-02-19T05:56:26.350Z,76.56
2023-02-19T05:58:54.160Z,76.81
2023-02-19T06:01:22.625Z,76.59
2023-02-19T06:03:50.068Z,76.91
2023-02-19T06:06:18.292Z,76.87
2023-02-19T06:08:45.626Z,77.09
2023-02-19T06:11:13.075Z,77.01
2023-02-19T06:13:40.415Z,76.40
2023-02-19T06:16:07.976Z,76.35
2023-02-19T06:18:35.468Z,76.72
2023-02-19T06:21:06.702Z,77.17
2023-02-19T06:23:34.159Z,77.48
2023-02-19T06:26:09.378Z,77.55
2023-02-19T06:28:37.304Z,77.31
2023-02-19T06:31:05.409Z,76.89
2023-02-19T06:33:32.929Z,77.03
2023-02-19T06:36:01.408Z,77.45
2023-02-19T06:38:28.837Z,76.93
2023-02-19T06:40:56.215Z,77.12
2023-02-19T06:43:23.545Z,77.55
2023-02-19T06:45:50.796Z,77.36
2023-02-19T06:48:18.208Z,76.83
2023-02-19T06:50:45.470Z,76.94
2023-02-19T06:53:12.887Z,77.02
2023-02-19T06:55:40.595Z,76.56
2023-02-19T06:58:08.079Z,76.29
2023-02-19T07:00:35.373Z,76.31
2023-02-19T07:03:05.400Z,75.93
2023-02-19T07:05:32.907Z,75.77
2023-02-19T07:08:00.178Z,75.67
2023-02-19T07:10:27.508Z,75.59
2023-02-19T07:12:54.740Z,75.65
2023-02-19T07:15:22.088Z,75.64
2023-02-19T07:17:49.370Z,75.25
2023-02-19T07:20:16.705Z,75.31
2023-02-19T07:22:44.028Z,75.07
2023-02-19T07:25:11.401Z,74.95
2023-02-19T07:27:38.708Z,75.00
2023-02-19T07:30:06.362Z,74.65
2023-02-19T07:32:33.627Z,74.58
2023-02-19T07:35:00.943Z,74.63
2023-02-19T07:37:28.197Z,74.59
2023-02-19T07:39:55.522Z,74.57
2023-02-19T07:42:22.776Z,74.57
2023-02-19T07:44:50.326Z,74.58
2023-02-19T07:47:17.632Z,74.73
2023-02-19T07:49:44.955Z,74.71
2023-02-19T07:52:12.378Z,73.91
2023-02-19T07:54:39.799Z,74.04
2023-02-19T07:57:07.055Z,73.28
2023-02-19T07:59:34.980Z,72.27
2023-02-19T08:02:21.133Z,72.89
2023-02-19T08:04:48.690Z,72.39
2023-02-19T08:07:15.959Z,71.83
2023-02-19T08:09:43.277Z,71.92
2023-02-19T08:12:29.833Z,72.09
2023-02-19T08:14:57.994Z,71.77
2023-02-19T08:17:25.332Z,72.56
2023-02-19T08:19:52.819Z,72.37
2023-02-19T08:22:20.067Z,72.55
2023-02-19T08:24:47.416Z,71.99
2023-02-19T08:27:14.692Z,71.81
2023-02-19T08:29:42.035Z,71.45
2023-02-19T08:32:09.355Z,70.99
2023-02-19T08:34:37.218Z,71.65
2023-02-19T08:37:04.463Z,71.84
2023-02-19T08:39:32.485Z,71.36
2023-02-19T08:41:59.856Z,71.27
2023-02-19T08:44:27.207Z,70.75
2023-02-19T08:46:54.523Z,70.33
2023-02-19T08:49:21.872Z,70.30
2023-02-19T08:51:49.118Z,69.86
2023-02-19T08:54:16.486Z,69.21
2023-02-19T08:56:43.781Z,68.93
2023-02-19T08:59:11.097Z,68.73
2023-02-19T09:01:38.389Z,69.25
2023-02-19T09:04:05.830Z,69.03
2023-02-19T09:06:33.134Z,69.01
2023-02-19T09:09:00.423Z,68.78
2023-02-19T09:11:27.803Z,67.90
2023-02-19T09:13:56.029Z,68.15
2023-02-19T09:16:23.347Z,68.31
2023-02-19T09:18:50.861Z,68.89
2023-02-19T09:21:18.182Z,68.53
2023-02-19T09:23:45.553Z,67.04
2023-02-19T09:26:14.119Z,66.03
2023-02-19T09:28:42.068Z,64.99
2023-02-19T09:31:14.091Z,64.22
2023-02-19T09:33:44.653Z,63.76
2023-02-19T09:36:14.760Z,63.17
2023-02-19T09:38:42.368Z,63.10
2023-02-19T09:41:27.907Z,62.19
2023-02-19T09:43:55.553Z,62.13
2023-02-19T09:46:35.164Z,61.61
2023-02-19T09:49:07.721Z,61.31
2023-02-19T09:51:35.382Z,61.04
2023-02-19T09:54:02.652Z,59.55
2023-02-19T09:56:30.001Z,58.63
2023-02-19T09:58:58.183Z,58.07
2023-02-19T10:01:27.062Z,57.21
2023-02-19T10:03:54.313Z,57.72
2023-02-19T10:06:23.594Z,57.67
2023-02-19T10:08:52.867Z,56.29
2023-02-19T10:11:20.309Z,57.25
2023-02-19T10:14:09.565Z,57.19
2023-02-19T10:16:40.796Z,59.26
2023-02-19T10:19:12.162Z,58.98
2023-02-19T10:21:39.675Z,58.50
2023-02-19T10:24:07.097Z,56.48
2023-02-19T10:26:37.624Z,55.83
2023-02-19T10:29:05.312Z,56.47
2023-02-19T10:31:33.289Z,56.10
2023-02-19T10:34:02.172Z,55.78
2023-02-19T10:36:42.614Z,55.63
2023-02-19T10:39:22.178Z,54.63
2023-02-19T10:41:50.731Z,54.11
2023-02-19T10:44:24.862Z,54.65
2023-02-19T10:46:52.881Z,53.56
2023-02-19T10:49:32.742Z,53.15
2023-02-19T10:52:02.677Z,53.44
2023-02-19T10:54:33.143Z,53.46
2023-02-19T10:57:15.733Z,53.34
2023-02-19T10:59:53.721Z,52.61
2023-02-19T11:02:21.641Z,52.60
2023-02-19T11:05:17.066Z,52.34
2023-02-19T11:07:45.392Z,51.28
2023-02-19T11:10:44.475Z,49.87
2023-02-19T11:13:24.685Z,48.32
2023-02-19T11:15:53.433Z,47.74
2023-02-19T11:18:33.397Z,48.35
2023-02-19T11:21:05.149Z,49.44
2023-02-19T11:23:37.327Z,47.48
2023-02-19T11:26:15.604Z,45.58
2023-02-19T11:28:42.960Z,45.41
2023-02-19T11:31:19.510Z,46.28
2023-02-19T11:33:56.866Z,47.71
2023-02-19T11:36:34.130Z,48.62
2023-02-19T11:39:16.711Z,47.62
2023-02-19T11:42:29.575Z,47.22
2023-02-19T11:45:18.939Z,48.29
2023-02-19T11:47:54.703Z,48.24
2023-02-19T11:50:32.630Z,42.36
2023-02-19T11:53:02.918Z,45.89
2023-02-19T11:56:07.719Z,46.96
2023-02-19T11:59:16.733Z,46.02
2023-02-19T12:01:59.002Z,44.95
2023-02-19T12:04:41.578Z,44.67
2023-02-19T12:07:37.625Z,47.74
2023-02-19T12:10:17.300Z,51.63
2023-02-19T12:12:47.598Z,53.76
2023-02-19T12:15:27.162Z,55.57
2023-02-19T12:18:23.631Z,58.04
2023-02-19T12:21:24.963Z,59.08
2023-02-19T12:24:43.118Z,59.75
2023-02-19T12:27:41.316Z,60.57
2023-02-19T12:30:33.730Z,59.47
2023-02-19T12:33:18.514Z,59.22
2023-02-19T12:36:04.103Z,58.69
2023-02-19T12:38:37.210Z,58.61
2023-02-19T12:41:13.214Z,59.00
2023-02-19T12:43:42.050Z,59.00
2023-02-19T12:46:14.081Z,57.83
2023-02-19T12:49:02.650Z,53.39
2023-02-19T12:51:51.014Z,51.89
2023-02-19T12:54:27.216Z,50.81
2023-02-19T12:57:09.155Z,50.86
2023-02-19T12:59:39.544Z,49.89
2023-02-19T13:02:13.027Z,50.48
2023-02-19T13:04:54.801Z,44.62
2023-02-19T13:07:40.165Z,41.65
2023-02-19T13:10:22.640Z,40.58
2023-02-19T13:12:50.020Z,39.66
2023-02-19T13:15:35.895Z,40.50
2023-02-19T13:18:03.914Z,39.97
2023-02-19T13:20:35.748Z,39.87
2023-02-19T13:23:55.046Z,39.67
2023-02-19T13:26:25.442Z,37.36
2023-02-19T13:29:31.327Z,36.77
2023-02-19T13:32:01.374Z,37.06
2023-02-19T13:34:44.662Z,36.90
2023-02-19T13:37:12.017Z,36.77
2023-02-19T13:39:48.742Z,37.25
2023-02-19T13:42:27.319Z,38.00
2023-02-19T13:44:57.923Z,38.79
2023-02-19T13:47:54.037Z,38.91
2023-02-19T13:50:32.210Z,38.67
2023-02-19T13:53:08.257Z,38.58
2023-02-19T13:55:50.941Z,39.10
2023-02-19T13:58:33.825Z,39.47
2023-02-19T14:01:05.327Z,39.68
2023-02-19T14:03:55.443Z,39.63
2023-02-19T14:06:22.890Z,38.26
2023-02-19T14:08:56.785Z,38.62
2023-02-19T14:11:42.503Z,38.52
2023-02-19T14:14:28.674Z,38.89
2023-02-19T14:17:01.352Z,39.12
2023-02-19T14:19:52.887Z,38.89
2023-02-19T14:22:47.642Z,38.94
2023-02-19T14:25:27.116Z,38.23
2023-02-19T14:27:55.535Z,38.45
2023-02-19T14:30:22.970Z,38.00
2023-02-19T14:32:54.618Z,37.99
2023-02-19T14:35:29.335Z,38.39
2023-02-19T14:37:56.894Z,38.41
2023-02-19T14:40:27.836Z,38.40
2023-02-19T14:42:57.312Z,38.43
2023-02-19T14:45:24.895Z,38.22
2023-02-19T14:47:52.102Z,38.16
2023-02-19T14:50:30.615Z,37.77
2023-02-19T14:53:03.244Z,37.62
2023-02-19T14:55:32.788Z,37.50
2023-02-19T14:58:01.262Z,37.18
2023-02-19T15:00:34.684Z,37.63
2023-02-19T15:03:02.793Z,37.48
2023-02-19T15:05:31.690Z,37.01
2023-02-19T15:08:01.223Z,37.12
2023-02-19T15:10:29.583Z,37.02
2023-02-19T15:12:59.347Z,37.12
2023-02-19T15:15:29.265Z,37.06
2023-02-19T15:17:57.286Z,37.17
2023-02-19T15:20:25.868Z,37.24
2023-02-19T15:22:53.762Z,37.17
2023-02-19T15:25:22.674Z,37.76
2023-02-19T15:27:50.337Z,37.47
2023-02-19T15:30:24.847Z,37.70
2023-02-19T15:32:58.739Z,37.68
2023-02-19T15:35:29.674Z,37.56
2023-02-19T15:37:57.154Z,37.22
2023-02-19T15:40:30.302Z,36.09
2023-02-19T15:42:57.973Z,36.21
2023-02-19T15:45:29.664Z,36.47
2023-02-19T15:48:04.855Z,37.12
2023-02-19T15:50:33.876Z,37.63
2023-02-19T15:53:17.337Z,37.81
2023-02-19T15:56:03.001Z,37.95
2023-02-19T15:58:31.613Z,38.17
2023-02-19T16:01:14.921Z,38.79
2023-02-19T16:03:42.350Z,39.77
2023-02-19T16:06:15.136Z,40.76
2023-02-19T16:08:43.720Z,41.65
2023-02-19T16:11:23.131Z,41.97
2023-02-19T16:13:51.298Z,42.48
2023-02-19T16:16:31.518Z,44.26
2023-02-19T16:18:58.865Z,45.76
2023-02-19T16:21:26.598Z,46.65
2023-02-19T16:24:01.638Z,47.03
2023-02-19T16:26:28.982Z,47.05
2023-02-19T16:28:56.202Z,47.50
2023-02-19T16:31:23.773Z,48.17
2023-02-19T16:33:51.185Z,48.12
2023-02-19T16:36:37.314Z,48.25
2023-02-19T16:39:07.663Z,48.35
2023-02-19T16:41:41.085Z,48.47
2023-02-19T16:44:46.655Z,48.48
2023-02-19T16:47:24.767Z,48.76
2023-02-19T16:49:52.110Z,49.19
2023-02-19T16:52:19.431Z,49.07
2023-02-19T16:54:47.978Z,49.68
2023-02-19T16:57:15.370Z,45.91
2023-02-19T16:59:42.802Z,44.94
2023-02-19T17:02:14.699Z,44.11
2023-02-19T17:04:42.064Z,43.52
2023-02-19T17:07:14.711Z,44.32
2023-02-19T17:09:42.189Z,44.77
2023-02-19T17:12:13.494Z,45.29
2023-02-19T17:14:41.022Z,45.01
2023-02-19T17:17:08.517Z,45.06
2023-02-19T17:19:35.979Z,45.35
2023-02-19T17:22:04.016Z,45.51
2023-02-19T17:24:31.920Z,45.64
2023-02-19T17:26:59.230Z,45.44
2023-02-19T17:29:28.569Z,45.71
2023-02-19T17:31:55.935Z,46.18
2023-02-19T17:34:23.352Z,46.15
2023-02-19T17:36:52.048Z,46.31
2023-02-19T17:39:19.585Z,46.29
2023-02-19T17:41:46.897Z,46.33
2023-02-19T17:44:14.290Z,46.29
2023-02-19T17:46:41.657Z,46.85
2023-02-19T17:49:10.905Z,47.06
2023-02-19T17:51:38.263Z,47.10
2023-02-19T17:54:08.242Z,47.68
2023-02-19T17:56:36.235Z,47.81
2023-02-19T17:59:03.622Z,48.30
2023-02-19T18:01:30.937Z,48.89
2023-02-19T18:03:58.323Z,49.17
2023-02-19T18:06:25.732Z,49.44
2023-02-19T18:08:53.292Z,49.61
2023-02-19T18:11:22.181Z,50.10
2023-02-19T18:13:50.621Z,50.42
2023-02-19T18:16:18.194Z,50.89
2023-02-19T18:18:45.520Z,51.02
2023-02-19T18:21:13.561Z,51.19
2023-02-19T18:23:41.165Z,52.21
2023-02-19T18:26:10.430Z,54.55
2023-02-19T18:28:37.932Z,58.98
2023-02-19T18:31:05.461Z,62.90
2023-02-19T18:33:33.654Z,65.50
2023-02-19T18:36:01.219Z,67.68
2023-02-19T18:38:28.672Z,69.66
2023-02-19T18:40:58.626Z,70.45
2023-02-19T18:43:26.153Z,71.21
2023-02-19T18:45:53.575Z,72.43
2023-02-19T18:48:20.909Z,72.47
2023-02-19T18:50:48.246Z,73.18
2023-02-19T18:53:15.711Z,73.24
2023-02-19T18:55:43.087Z,73.19
2023-02-19T18:58:10.364Z,72.84
2023-02-19T19:00:37.662Z,72.85
2023-02-19T19:03:05.205Z,72.28
2023-02-19T19:05:32.626Z,71.74
2023-02-19T19:08:01.863Z,72.01
2023-02-19T19:10:29.979Z,72.80
2023-02-19T19:12:57.827Z,72.95
2023-02-19T19:15:25.489Z,73.15
2023-02-19T19:17:52.816Z,73.89
2023-02-19T19:20:21.151Z,73.90
2023-02-19T19:22:52.332Z,74.15
2023-02-19T19:25:20.420Z,74.14
2023-02-19T19:27:47.770Z,74.15
2023-02-19T19:30:15.242Z,74.01
2023-02-19T19:32:42.592Z,74.11
2023-02-19T19:35:10.129Z,74.14
2023-02-19T19:37:37.385Z,74.28
2023-02-19T19:40:05.444Z,74.49
2023-02-19T19:42:32.755Z,74.81
2023-02-19T19:45:00.127Z,74.68
2023-02-19T19:47:27.501Z,74.83
2023-02-19T19:49:54.965Z,74.61
2023-02-19T19:52:22.236Z,74.76
2023-02-19T19:54:54.080Z,74.81
2023-02-19T19:57:21.499Z,74.94
2023-02-19T19:59:51.159Z,75.15
2023-02-19T20:02:18.795Z,75.23
2023-02-19T20:04:46.095Z,75.18
2023-02-19T20:07:13.398Z,75.28
2023-02-19T20:09:40.640Z,75.14
2023-02-19T20:12:08.211Z,74.87
2023-02-19T20:14:35.532Z,74.80
2023-02-19T20:17:02.907Z,74.41
2023-02-19T20:19:30.329Z,73.95
2023-02-19T20:21:57.689Z,73.83
2023-02-19T20:24:26.232Z,74.01
2023-02-19T20:26:53.896Z,73.85
2023-02-19T20:29:21.150Z,73.55
2023-02-19T20:31:49.421Z,73.70
2023-02-19T20:34:16.960Z,73.68
2023-02-19T20:36:45.175Z,73.63
2023-02-19T20:39:12.454Z,73.31
2023-02-19T20:41:39.861Z,73.28
2023-02-19T20:44:07.176Z,73.23
2023-02-19T20:46:40.966Z,73.13
2023-02-19T20:49:08.325Z,72.98
2023-02-19T20:51:50.148Z,73.22
2023-02-19T20:54:18.192Z,73.50
2023-02-19T20:56:49.735Z,73.41
2023-02-19T20:59:17.321Z,73.55
2023-02-19T21:01:44.665Z,73.33
2023-02-19T21:04:12.171Z,72.97
2023-02-19T21:06:39.760Z,72.98
2023-02-19T21:09:07.161Z,72.41
2023-02-19T21:11:35.840Z,72.82
2023-02-19T21:14:03.195Z,72.96
2023-02-19T21:16:31.061Z,72.60
2023-02-19T21:18:58.639Z,72.31
2023-02-19T21:21:26.404Z,72.62
2023-02-19T21:23:54.537Z,72.88
2023-02-19T21:26:21.913Z,72.54
2023-02-19T21:28:52.607Z,72.83
2023-02-19T21:31:20.611Z,73.01
2023-02-19T21:33:47.912Z,72.42
2023-02-19T21:36:15.401Z,72.61
2023-02-19T21:38:42.616Z,72.57
2023-02-19T21:41:09.925Z,72.73
2023-02-19T21:43:37.225Z,72.62
2023-02-19T21:46:04.789Z,72.84
2023-02-19T21:48:32.054Z,73.08
2023-02-19T21:50:59.461Z,73.32
2023-02-19T21:53:26.682Z,73.09
2023-02-19T21:55:58.762Z,73.26
2023-02-19T21:58:26.615Z,73.66
2023-02-19T22:00:54.263Z,73.48
2023-02-19T22:03:21.736Z,73.46
2023-02-19T22:05:49.007Z,73.46
2023-02-19T22:08:17.565Z,73.76
2023-02-19T22:10:44.846Z,73.87
2023-02-19T22:13:12.276Z,73.84
2023-02-19T22:15:39.522Z,73.61
2023-02-19T22:18:06.911Z,74.33
2023-02-19T22:20:34.828Z,74.24
2023-02-19T22:23:02.138Z,74.08
2023-02-19T22:25:29.378Z,74.18
2023-02-19T22:27:57.252Z,74.47
2023-02-19T22:30:25.658Z,75.16
2023-02-19T22:32:53.060Z,75.13
2023-02-19T22:35:20.409Z,75.28
2023-02-19T22:37:47.783Z,75.44
2023-02-19T22:40:15.108Z,75.69
2023-02-19T22:42:42.563Z,75.94
2023-02-19T22:45:11.090Z,75.92
2023-02-19T22:47:40.051Z,75.73
2023-02-19T22:50:07.814Z,76.11
2023-02-19T22:52:35.147Z,76.42
2023-02-19T22:55:02.504Z,76.04
2023-02-19T22:57:29.845Z,75.90
2023-02-19T22:59:57.116Z,75.44
2023-02-19T23:02:24.424Z,76.65
2023-02-19T23:04:51.709Z,77.31
2023-02-19T23:07:18.993Z,77.91
2023-02-19T23:09:46.400Z,78.57
2023-02-19T23:12:13.799Z,78.30
2023-02-19T23:14:41.026Z,78.32
2023-02-19T23:17:08.317Z,77.82
2023-02-19T23:19:35.731Z,78.08
2023-02-19T23:22:03.310Z,78.04
2023-02-19T23:24:30.680Z,78.32
2023-02-19T23:26:59.739Z,78.77
2023-02-19T23:29:27.480Z,78.77
2023-02-19T23:31:54.979Z,78.67
2023-02-19T23:34:22.544Z,78.48
2023-02-19T23:36:50.118Z,78.70
2023-02-19T23:39:19.142Z,78.56
2023-02-19T23:41:47.863Z,78.66
2023-02-19T23:44:15.595Z,78.39
2023-02-19T23:46:43.076Z,78.07
2023-02-19T23:49:10.656Z,77.64
2023-02-19T23:51:38.118Z,77.10
2023-02-19T23:54:05.414Z,76.06
2023-02-19T23:56:32.814Z,76.39
2023-02-19T23:59:00.058Z,75.54
